createdAt,value
2017-02-15T00:00:45.377Z,10.42
2017-02-15T00:01:45.084Z,10.33
2017-02-15T00:02:45.030Z,10.33
2017-02-15T00:03:44.953Z,10.23
2017-02-15T00:04:44.933Z,10.23
2017-02-15T00:05:44.826Z,10.52
2017-02-15T00:06:44.768Z,10.72
2017-02-15T00:07:44.713Z,10.42
2017-02-15T00:08:44.636Z,10.33
2017-02-15T00:09:44.574Z,10.33
2017-02-15T00:10:44.519Z,10.42
2017-02-15T00:11:44.453Z,10.23
2017-02-15T00:12:44.386Z,10.72
2017-02-15T00:13:43.937Z,10.42
2017-02-15T00:14:43.885Z,10.52
2017-02-15T00:15:44.195Z,10.33
2017-02-15T00:16:44.132Z,10.81
2017-02-15T00:17:44.066Z,10.42
2017-02-15T00:18:43.999Z,10.52
2017-02-15T00:19:43.943Z,10.33
2017-02-15T00:20:43.881Z,10.33
2017-02-15T00:21:43.822Z,10.72
2017-02-15T00:22:43.747Z,10.42
2017-02-15T00:23:43.689Z,10.42
2017-02-15T00:24:43.620Z,10.42
2017-02-15T00:25:43.555Z,10.72
2017-02-15T00:26:43.502Z,10.72
2017-02-15T00:27:43.427Z,10.81
2017-02-15T00:28:43.366Z,10.81
2017-02-15T00:29:43.314Z,10.72
2017-02-15T00:30:43.245Z,10.72
2017-02-15T00:31:43.173Z,10.33
2017-02-15T00:32:43.126Z,10.62
2017-02-15T00:33:43.045Z,10.72
2017-02-15T00:34:42.992Z,10.42
2017-02-15T00:35:42.952Z,10.33
2017-02-15T00:36:42.869Z,10.42
2017-02-15T00:37:42.795Z,10.52
2017-02-15T00:38:42.736Z,10.81
2017-02-15T00:39:42.666Z,10.81
2017-02-15T00:40:42.601Z,10.62
2017-02-15T00:41:42.536Z,10.33
2017-02-15T00:42:42.473Z,10.72
2017-02-15T00:43:42.423Z,10.62
2017-02-15T00:44:42.349Z,10.81
2017-02-15T00:45:42.285Z,10.62
2017-02-15T00:46:42.219Z,10.81
2017-02-15T00:47:42.163Z,10.72
2017-02-15T00:48:42.112Z,10.33
2017-02-15T00:49:42.029Z,10.33
2017-02-15T00:50:41.976Z,10.72
2017-02-15T00:51:41.901Z,10.33
2017-02-15T00:52:41.842Z,10.81
2017-02-15T00:53:41.410Z,10.62
2017-02-15T00:54:41.709Z,10.62
2017-02-15T00:55:41.648Z,10.33
2017-02-15T00:56:41.598Z,10.81
2017-02-15T00:57:41.137Z,10.62
2017-02-15T00:58:41.479Z,10.81
2017-02-15T00:59:41.011Z,10.72
2017-02-15T01:01:13.344Z,10.42
2017-02-15T01:02:12.914Z,10.72
2017-02-15T01:03:12.848Z,10.72
2017-02-15T01:04:12.793Z,10.72
2017-02-15T01:05:12.732Z,10.62
2017-02-15T01:06:12.276Z,10.62
2017-02-15T01:07:12.209Z,10.42
2017-02-15T01:08:12.527Z,10.91
2017-02-15T01:09:12.472Z,10.81
2017-02-15T01:10:12.654Z,10.62
2017-02-15T01:11:12.336Z,10.62
2017-02-15T01:12:12.287Z,10.62
2017-02-15T01:13:12.211Z,10.62
2017-02-15T01:14:12.147Z,10.72
2017-02-15T01:15:12.088Z,10.72
2017-02-15T01:16:12.020Z,10.91
2017-02-15T01:17:11.957Z,10.72
2017-02-15T01:18:11.518Z,10.81
2017-02-15T01:19:11.827Z,10.81
2017-02-15T01:20:11.764Z,10.91
2017-02-15T01:21:11.712Z,10.81
2017-02-15T01:22:11.636Z,10.91
2017-02-15T01:23:11.575Z,10.81
2017-02-15T01:24:11.519Z,10.81
2017-02-15T01:25:11.448Z,10.81
2017-02-15T01:26:11.387Z,10.81
2017-02-15T01:27:11.320Z,10.72
2017-02-15T01:28:10.872Z,10.81
2017-02-15T01:29:11.192Z,10.91
2017-02-15T01:30:11.142Z,10.91
2017-02-15T01:31:11.065Z,10.91
2017-02-15T01:32:11.000Z,10.91
2017-02-15T01:33:10.937Z,10.91
2017-02-15T01:34:10.883Z,10.91
2017-02-15T01:35:10.809Z,10.81
2017-02-15T01:36:10.362Z,10.62
2017-02-15T01:37:10.682Z,10.81
2017-02-15T01:38:10.622Z,10.72
2017-02-15T01:39:10.556Z,10.91
2017-02-15T01:40:10.491Z,10.81
2017-02-15T01:41:10.424Z,10.91
2017-02-15T01:42:09.990Z,10.91
2017-02-15T01:43:10.301Z,10.81
2017-02-15T01:44:09.866Z,10.91
2017-02-15T01:45:10.173Z,10.91
2017-02-15T01:46:10.122Z,10.91
2017-02-15T01:47:10.045Z,10.91
2017-02-15T01:48:09.597Z,10.91
2017-02-15T01:49:09.918Z,10.81
2017-02-15T01:50:09.853Z,10.91
2017-02-15T01:51:09.805Z,10.91
2017-02-15T01:52:09.728Z,10.91
2017-02-15T01:53:09.662Z,10.81
2017-02-15T01:54:09.609Z,10.91
2017-02-15T01:55:09.836Z,10.81
2017-02-15T01:56:09.473Z,11.1
2017-02-15T01:57:09.409Z,10.81
2017-02-15T01:58:09.348Z,10.81
2017-02-15T01:59:09.282Z,10.91
2017-02-15T02:00:09.469Z,10.81
2017-02-15T02:01:09.155Z,10.91
2017-02-15T02:02:09.110Z,10.81
2017-02-15T02:03:09.057Z,10.81
2017-02-15T02:04:08.963Z,11
2017-02-15T02:05:08.901Z,10.91
2017-02-15T02:06:08.844Z,10.72
2017-02-15T02:07:08.785Z,10.81
2017-02-15T02:08:08.713Z,10.81
2017-02-15T02:09:08.645Z,10.72
2017-02-15T02:10:08.600Z,10.72
2017-02-15T02:11:08.528Z,10.91
2017-02-15T02:12:08.453Z,10.81
2017-02-15T02:13:08.391Z,10.72
2017-02-15T02:14:08.328Z,10.81
2017-02-15T02:15:08.262Z,10.91
2017-02-15T02:16:08.200Z,10.81
2017-02-15T02:17:08.135Z,10.81
2017-02-15T02:18:08.071Z,10.72
2017-02-15T02:19:08.013Z,11.1
2017-02-15T02:20:08.245Z,10.81
2017-02-15T02:21:07.893Z,10.91
2017-02-15T02:22:07.823Z,10.91
2017-02-15T02:23:07.750Z,10.81
2017-02-15T02:24:07.691Z,10.81
2017-02-15T02:25:07.661Z,10.72
2017-02-15T02:26:07.178Z,10.81
2017-02-15T02:27:07.497Z,10.91
2017-02-15T02:28:07.447Z,11
2017-02-15T02:29:06.985Z,11
2017-02-15T02:30:07.559Z,11.1
2017-02-15T02:31:07.243Z,11.1
2017-02-15T02:32:07.179Z,11
2017-02-15T02:33:07.125Z,11
2017-02-15T02:34:07.060Z,10.91
2017-02-15T02:35:07.293Z,11
2017-02-15T02:36:06.943Z,11.11
2017-02-15T02:37:06.864Z,11
2017-02-15T02:38:06.803Z,11.11
2017-02-15T02:39:06.734Z,11.1
2017-02-15T02:40:06.673Z,11
2017-02-15T02:41:06.608Z,11
2017-02-15T02:42:06.557Z,11.1
2017-02-15T02:43:06.481Z,11.11
2017-02-15T02:44:06.430Z,11
2017-02-15T02:45:06.360Z,11.01
2017-02-15T02:46:06.289Z,11.1
2017-02-15T02:47:06.226Z,11.1
2017-02-15T02:48:06.179Z,11.1
2017-02-15T02:49:05.728Z,11.01
2017-02-15T02:50:06.037Z,11
2017-02-15T02:51:05.999Z,11.1
2017-02-15T02:52:05.909Z,11
2017-02-15T02:53:05.843Z,11
2017-02-15T02:54:05.782Z,11.11
2017-02-15T02:55:05.726Z,11.1
2017-02-15T02:56:05.656Z,11.01
2017-02-15T02:57:05.598Z,11.11
2017-02-15T02:58:05.528Z,11.01
2017-02-15T02:59:05.479Z,10.91
2017-02-15T03:00:05.418Z,11
2017-02-15T03:01:05.350Z,11
2017-02-15T03:02:05.276Z,10.91
2017-02-15T03:03:05.212Z,11
2017-02-15T03:04:05.150Z,11.1
2017-02-15T03:05:05.083Z,10.81
2017-02-15T03:06:05.020Z,10.91
2017-02-15T03:07:04.954Z,11
2017-02-15T03:08:04.895Z,11.2
2017-02-15T03:09:04.833Z,11.01
2017-02-15T03:10:04.767Z,11.01
2017-02-15T03:11:04.701Z,11
2017-02-15T03:12:04.640Z,11.11
2017-02-15T03:13:04.577Z,11
2017-02-15T03:14:04.522Z,11
2017-02-15T03:15:04.449Z,10.72
2017-02-15T03:16:04.395Z,10.91
2017-02-15T03:17:04.322Z,11.01
2017-02-15T03:18:04.264Z,10.81
2017-02-15T03:19:04.211Z,11.1
2017-02-15T03:20:04.131Z,10.72
2017-02-15T03:21:04.069Z,11.01
2017-02-15T03:22:04.005Z,11.11
2017-02-15T03:23:03.945Z,10.72
2017-02-15T03:24:03.877Z,10.81
2017-02-15T03:25:03.822Z,10.81
2017-02-15T03:26:03.760Z,11.11
2017-02-15T03:27:03.687Z,11.3
2017-02-15T03:28:03.623Z,11.29
2017-02-15T03:29:03.571Z,11.21
2017-02-15T03:30:03.498Z,11.4
2017-02-15T03:31:03.439Z,12.07
2017-02-15T03:32:03.373Z,12.26
2017-02-15T03:33:03.313Z,12.45
2017-02-15T03:34:03.243Z,12.27
2017-02-15T03:35:03.181Z,12.07
2017-02-15T03:36:03.127Z,11.79
2017-02-15T03:37:03.053Z,11.98
2017-02-15T03:38:02.989Z,11.87
2017-02-15T03:39:02.944Z,11.68
2017-02-15T03:40:02.863Z,11.59
2017-02-15T03:41:02.798Z,11.79
2017-02-15T03:42:02.760Z,11.87
2017-02-15T03:43:02.671Z,11.78
2017-02-15T03:44:02.607Z,11.97
2017-02-15T03:45:02.566Z,11.87
2017-02-15T03:46:02.491Z,11.78
2017-02-15T03:47:02.420Z,11.78
2017-02-15T03:48:02.354Z,11.78
2017-02-15T03:49:02.291Z,11.78
2017-02-15T03:50:02.234Z,11.68
2017-02-15T03:51:02.170Z,11.78
2017-02-15T03:52:02.100Z,11.68
2017-02-15T03:53:02.048Z,11.78
2017-02-15T03:54:01.974Z,11.78
2017-02-15T03:55:01.922Z,11.68
2017-02-15T03:56:01.845Z,11.68
2017-02-15T03:57:01.782Z,11.68
2017-02-15T03:58:01.723Z,11.87
2017-02-15T03:59:01.655Z,11.97
2017-02-15T04:00:01.607Z,11.88
2017-02-15T04:01:01.544Z,11.88
2017-02-15T04:02:01.465Z,11.87
2017-02-15T04:03:01.417Z,11.97
2017-02-15T04:04:01.348Z,11.78
2017-02-15T04:05:01.283Z,11.87
2017-02-15T04:06:01.225Z,11.78
2017-02-15T04:07:01.157Z,11.87
2017-02-15T04:08:01.083Z,11.88
2017-02-15T04:09:01.021Z,11.98
2017-02-15T04:10:00.967Z,11.88
2017-02-15T04:11:00.895Z,11.87
2017-02-15T04:12:00.831Z,11.78
2017-02-15T04:13:00.778Z,12.07
2017-02-15T04:14:00.710Z,11.87
2017-02-15T04:15:00.641Z,11.58
2017-02-15T04:16:00.576Z,11.78
2017-02-15T04:17:00.527Z,11.78
2017-02-15T04:18:00.449Z,12.17
2017-02-15T04:19:00.389Z,12.07
2017-02-15T04:20:00.325Z,11.98
2017-02-15T04:21:00.258Z,12.07
2017-02-15T04:22:00.202Z,11.69
2017-02-15T04:23:00.143Z,11.69
2017-02-15T04:24:00.076Z,11.68
2017-02-15T04:25:00.005Z,11.79
2017-02-15T04:25:59.955Z,11.78
2017-02-15T04:26:59.884Z,11.78
2017-02-15T04:27:59.826Z,11.68
2017-02-15T04:28:59.748Z,11.68
2017-02-15T04:29:59.687Z,11.68
2017-02-15T04:30:59.624Z,11.68
2017-02-15T04:31:59.557Z,11.58
2017-02-15T04:32:59.505Z,12.16
2017-02-15T04:33:59.432Z,11.58
2017-02-15T04:34:59.369Z,11.87
2017-02-15T04:35:59.308Z,11.87
2017-02-15T04:36:59.241Z,11.87
2017-02-15T04:37:59.176Z,11.68
2017-02-15T04:38:59.116Z,11.97
2017-02-15T04:39:59.088Z,11.87
2017-02-15T04:40:58.987Z,11.97
2017-02-15T04:41:58.925Z,11.87
2017-02-15T04:42:58.857Z,11.97
2017-02-15T04:43:58.796Z,11.97
2017-02-15T04:44:58.736Z,11.97
2017-02-15T04:45:58.683Z,11.87
2017-02-15T04:46:58.606Z,11.87
2017-02-15T04:47:58.553Z,11.59
2017-02-15T04:48:58.485Z,11.87
2017-02-15T04:49:58.414Z,11.78
2017-02-15T04:50:58.350Z,11.97
2017-02-15T04:51:58.291Z,11.87
2017-02-15T04:52:58.237Z,11.87
2017-02-15T04:53:58.160Z,11.87
2017-02-15T04:54:58.098Z,11.87
2017-02-15T04:55:58.034Z,11.78
2017-02-15T04:56:57.972Z,11.87
2017-02-15T04:57:57.906Z,11.87
2017-02-15T04:58:57.842Z,11.78
2017-02-15T04:59:57.779Z,11.97
2017-02-15T05:00:57.726Z,11.87
2017-02-15T05:01:57.652Z,11.68
2017-02-15T05:02:57.587Z,11.97
2017-02-15T05:03:57.542Z,11.78
2017-02-15T05:04:57.468Z,11.78
2017-02-15T05:05:57.395Z,11.39
2017-02-15T05:06:57.334Z,11.1
2017-02-15T05:07:57.273Z,11.39
2017-02-15T05:08:57.205Z,11.1
2017-02-15T05:09:57.142Z,11.29
2017-02-15T05:10:57.088Z,11
2017-02-15T05:11:57.015Z,11
2017-02-15T05:12:56.953Z,11.1
2017-02-15T05:13:56.887Z,11.2
2017-02-15T05:14:56.826Z,10.72
2017-02-15T05:15:56.760Z,11.2
2017-02-15T05:16:56.697Z,10.81
2017-02-15T05:17:56.634Z,11.1
2017-02-15T05:18:56.569Z,10.81
2017-02-15T05:19:56.511Z,10.91
2017-02-15T05:20:56.458Z,10.81
2017-02-15T05:21:56.380Z,11
2017-02-15T05:22:56.317Z,10.91
2017-02-15T05:23:56.260Z,11.1
2017-02-15T05:24:56.188Z,11
2017-02-15T05:25:56.126Z,11.1
2017-02-15T05:26:56.063Z,11
2017-02-15T05:27:55.997Z,11
2017-02-15T05:28:55.946Z,11.1
2017-02-15T05:29:55.875Z,10.72
2017-02-15T05:30:55.807Z,11.2
2017-02-15T05:31:55.750Z,10.81
2017-02-15T05:32:55.690Z,10.91
2017-02-15T05:33:55.617Z,10.91
2017-02-15T05:34:55.551Z,10.91
2017-02-15T05:35:55.504Z,10.91
2017-02-15T05:36:55.427Z,10.91
2017-02-15T05:37:55.364Z,10.72
2017-02-15T05:38:54.920Z,10.42
2017-02-15T05:39:55.235Z,10.62
2017-02-15T05:40:55.171Z,10.81
2017-02-15T05:41:55.115Z,10.33
2017-02-15T05:42:55.051Z,10.33
2017-02-15T05:43:54.979Z,10.33
2017-02-15T05:44:54.921Z,10.33
2017-02-15T05:45:54.863Z,10.52
2017-02-15T05:46:54.787Z,10.72
2017-02-15T05:47:54.726Z,10.81
2017-02-15T05:48:54.662Z,10.81
2017-02-15T05:49:54.595Z,10.81
2017-02-15T05:50:54.533Z,10.62
2017-02-15T05:51:54.472Z,10.72
2017-02-15T05:52:54.411Z,10.72
2017-02-15T05:53:54.342Z,10.62
2017-02-15T05:54:54.278Z,10.72
2017-02-15T05:55:54.217Z,10.52
2017-02-15T05:56:54.156Z,10.33
2017-02-15T05:57:54.093Z,10.33
2017-02-15T05:58:54.023Z,10.52
2017-02-15T05:59:53.957Z,10.23
2017-02-15T06:00:53.897Z,10.33
2017-02-15T06:01:53.846Z,10.52
2017-02-15T06:02:53.766Z,10.23
2017-02-15T06:03:53.704Z,10.62
2017-02-15T06:04:53.650Z,10.52
2017-02-15T06:05:53.582Z,10.52
2017-02-15T06:06:53.518Z,10.33
2017-02-15T06:07:53.448Z,10.42
2017-02-15T06:08:53.385Z,10.33
2017-02-15T06:09:53.322Z,10.52
2017-02-15T06:10:53.275Z,10.42
2017-02-15T06:11:53.194Z,10.23
2017-02-15T06:12:53.131Z,10.62
2017-02-15T06:13:53.065Z,10.23
2017-02-15T06:14:53.001Z,10.23
2017-02-15T06:15:52.942Z,10.42
2017-02-15T06:16:52.877Z,10.33
2017-02-15T06:17:52.809Z,10.42
2017-02-15T06:18:52.745Z,10.33
2017-02-15T06:19:52.685Z,10.62
2017-02-15T06:20:52.625Z,10.42
2017-02-15T06:21:52.555Z,10.42
2017-02-15T06:22:52.494Z,10.33
2017-02-15T06:23:52.428Z,10.33
2017-02-15T06:24:52.367Z,10.33
2017-02-15T06:25:52.299Z,10.23
2017-02-15T06:26:52.237Z,10.42
2017-02-15T06:27:52.174Z,10.23
2017-02-15T06:28:52.108Z,10.14
2017-02-15T06:29:52.043Z,10.14
2017-02-15T06:30:51.988Z,10.33
2017-02-15T06:31:51.915Z,10.14
2017-02-15T06:32:51.852Z,10.33
2017-02-15T06:33:51.790Z,10.14
2017-02-15T06:34:51.726Z,10.23
2017-02-15T06:35:51.668Z,10.23
2017-02-15T06:36:51.599Z,10.33
2017-02-15T06:37:51.552Z,10.14
2017-02-15T06:38:51.470Z,10.03
2017-02-15T06:39:51.409Z,10.04
2017-02-15T06:40:51.342Z,9.84
2017-02-15T06:41:51.289Z,10.04
2017-02-15T06:42:51.215Z,10.04
2017-02-15T06:43:51.150Z,9.84
2017-02-15T06:44:51.089Z,9.66
2017-02-15T06:45:51.027Z,9.66
2017-02-15T06:46:50.959Z,9.75
2017-02-15T06:47:50.895Z,9.75
2017-02-15T06:48:50.447Z,9.84
2017-02-15T06:49:50.768Z,9.84
2017-02-15T06:50:50.705Z,9.84
2017-02-15T06:51:50.646Z,9.84
2017-02-15T06:52:50.591Z,9.66
2017-02-15T06:53:50.513Z,9.75
2017-02-15T06:54:50.459Z,9.84
2017-02-15T06:55:50.395Z,9.84
2017-02-15T06:56:50.330Z,9.66
2017-02-15T06:57:50.262Z,9.75
2017-02-15T06:58:50.210Z,9.84
2017-02-15T06:59:50.131Z,9.84
2017-02-15T07:00:50.078Z,9.75
2017-02-15T07:01:50.003Z,9.75
2017-02-15T07:02:49.939Z,9.84
2017-02-15T07:03:49.892Z,9.84
2017-02-15T07:04:49.810Z,9.84
2017-02-15T07:05:49.745Z,9.84
2017-02-15T07:06:49.695Z,9.75
2017-02-15T07:07:49.617Z,9.84
2017-02-15T07:08:49.555Z,9.75
2017-02-15T07:09:49.504Z,9.94
2017-02-15T07:10:49.427Z,9.84
2017-02-15T07:11:49.369Z,9.84
2017-02-15T07:12:49.299Z,9.75
2017-02-15T07:13:49.235Z,9.84
2017-02-15T07:14:49.170Z,9.94
2017-02-15T07:15:49.118Z,9.94
2017-02-15T07:16:49.043Z,9.84
2017-02-15T07:17:48.979Z,9.94
2017-02-15T07:18:48.914Z,9.84
2017-02-15T07:19:48.851Z,9.84
2017-02-15T07:20:48.799Z,10.04
2017-02-15T07:21:48.726Z,9.94
2017-02-15T07:22:48.663Z,9.84
2017-02-15T07:23:48.607Z,10.03
2017-02-15T07:24:48.534Z,9.84
2017-02-15T07:25:48.087Z,10.03
2017-02-15T07:26:48.424Z,10.03
2017-02-15T07:27:48.341Z,9.75
2017-02-15T07:28:48.284Z,9.84
2017-02-15T07:29:48.213Z,10.03
2017-02-15T07:30:47.776Z,9.84
2017-02-15T07:31:48.091Z,9.75
2017-02-15T07:32:48.021Z,10.03
2017-02-15T07:33:47.958Z,10.03
2017-02-15T07:34:47.895Z,9.84
2017-02-15T07:35:47.834Z,10.03
2017-02-15T07:36:47.766Z,9.84
2017-02-15T07:37:47.705Z,10.04
2017-02-15T07:38:47.638Z,9.84
2017-02-15T07:39:47.575Z,9.94
2017-02-15T07:40:47.512Z,9.94
2017-02-15T07:41:47.449Z,9.94
2017-02-15T07:42:47.385Z,9.84
2017-02-15T07:43:47.317Z,9.84
2017-02-15T07:44:47.255Z,9.84
2017-02-15T07:45:47.198Z,9.84
2017-02-15T07:46:47.126Z,10.13
2017-02-15T07:47:47.064Z,9.84
2017-02-15T07:48:47.011Z,10.23
2017-02-15T07:49:46.945Z,9.84
2017-02-15T07:50:46.871Z,10.13
2017-02-15T07:51:46.805Z,9.84
2017-02-15T07:52:46.743Z,9.94
2017-02-15T07:53:46.694Z,9.94
2017-02-15T07:54:46.615Z,10.33
2017-02-15T07:55:46.552Z,9.65
2017-02-15T07:56:46.486Z,9.84
2017-02-15T07:57:46.423Z,9.84
2017-02-15T07:58:46.361Z,9.94
2017-02-15T07:59:46.516Z,9.84
2017-02-15T08:00:46.557Z,9.84
2017-02-15T08:01:46.193Z,10.04
2017-02-15T08:02:46.103Z,9.66
2017-02-15T08:03:46.041Z,9.56
2017-02-15T08:04:45.983Z,9.84
2017-02-15T08:05:45.911Z,9.84
2017-02-15T08:06:45.863Z,9.84
2017-02-15T08:07:45.785Z,10.04
2017-02-15T08:08:45.741Z,9.84
2017-02-15T08:09:45.277Z,9.94
2017-02-15T08:10:45.591Z,10.14
2017-02-15T08:11:45.530Z,9.84
2017-02-15T08:12:45.466Z,9.84
2017-02-15T08:13:45.401Z,10.14
2017-02-15T08:14:45.349Z,10.14
2017-02-15T08:15:45.281Z,9.84
2017-02-15T08:16:45.209Z,10.04
2017-02-15T08:17:45.148Z,9.94
2017-02-15T08:18:45.084Z,9.84
2017-02-15T08:19:44.645Z,10.14
2017-02-15T08:20:44.954Z,9.84
2017-02-15T08:21:44.890Z,9.84
2017-02-15T08:22:44.462Z,9.94
2017-02-15T08:23:44.766Z,9.94
2017-02-15T08:24:44.703Z,10.04
2017-02-15T08:25:44.640Z,9.94
2017-02-15T08:26:44.576Z,9.84
2017-02-15T08:27:44.521Z,9.94
2017-02-15T08:28:44.722Z,9.94
2017-02-15T08:29:44.001Z,9.84
2017-02-15T08:30:44.317Z,9.94
2017-02-15T08:31:44.255Z,9.94
2017-02-15T08:32:44.197Z,9.84
2017-02-15T08:33:44.123Z,9.94
2017-02-15T08:34:44.064Z,9.84
2017-02-15T08:35:44.298Z,9.84
2017-02-15T08:36:43.934Z,9.94
2017-02-15T08:37:43.896Z,9.84
2017-02-15T08:38:43.820Z,9.84
2017-02-15T08:39:43.744Z,9.84
2017-02-15T08:40:43.779Z,9.66
2017-02-15T08:41:43.616Z,9.75
2017-02-15T08:42:43.581Z,10.33
2017-02-15T08:43:43.493Z,9.66
2017-02-15T08:44:43.428Z,10.14
2017-02-15T08:45:43.360Z,10.04
2017-02-15T08:46:43.308Z,9.75
2017-02-15T08:47:43.240Z,9.66
2017-02-15T08:48:43.173Z,9.75
2017-02-15T08:49:43.110Z,9.66
2017-02-15T08:50:43.343Z,9.66
2017-02-15T08:51:42.994Z,10.33
2017-02-15T08:52:42.917Z,10.14
2017-02-15T08:53:42.863Z,10.04
2017-02-15T08:54:42.792Z,10.04
2017-02-15T08:55:42.724Z,10.23
2017-02-15T08:56:42.692Z,10.14
2017-02-15T08:57:42.598Z,10.14
2017-02-15T08:58:42.546Z,10.42
2017-02-15T08:59:42.471Z,10.33
2017-02-15T09:00:42.674Z,10.33
2017-02-15T09:01:42.380Z,10.33
2017-02-15T09:02:41.938Z,10.14
2017-02-15T09:03:42.220Z,10.33
2017-02-15T09:04:42.159Z,10.33
2017-02-15T09:05:42.123Z,10.42
2017-02-15T09:06:42.047Z,10.33
2017-02-15T09:07:41.977Z,10.52
2017-02-15T09:08:41.908Z,10.52
2017-02-15T09:09:41.839Z,10.52
2017-02-15T09:10:41.782Z,10.33
2017-02-15T09:11:41.710Z,10.62
2017-02-15T09:12:41.661Z,10.52
2017-02-15T09:13:41.623Z,10.33
2017-02-15T09:14:41.669Z,10.33
2017-02-15T09:15:41.454Z,10.42
2017-02-15T09:16:41.398Z,10.42
2017-02-15T09:17:41.330Z,10.23
2017-02-15T09:18:41.268Z,10.62
2017-02-15T09:19:41.199Z,10.14
2017-02-15T09:20:41.135Z,10.23
2017-02-15T09:21:41.070Z,10.33
2017-02-15T09:22:40.704Z,10.42
2017-02-15T09:23:40.946Z,10.23
2017-02-15T09:24:40.880Z,10.52
2017-02-15T09:25:40.543Z,10.23
2017-02-15T09:26:40.846Z,10.33
2017-02-15T09:27:40.748Z,10.42
2017-02-15T09:28:40.625Z,10.33
2017-02-15T09:29:40.585Z,10.62
2017-02-15T09:30:40.189Z,10.42
2017-02-15T09:31:40.442Z,10.42
2017-02-15T09:32:40.372Z,10.42
2017-02-15T09:33:40.328Z,10.52
2017-02-15T09:34:40.243Z,10.52
2017-02-15T09:35:40.334Z,10.52
2017-02-15T09:36:40.116Z,10.52
2017-02-15T09:37:40.053Z,10.52
2017-02-15T09:38:39.995Z,10.33
2017-02-15T09:39:39.924Z,10.52
2017-02-15T09:40:39.863Z,10.23
2017-02-15T09:41:39.799Z,10.23
2017-02-15T09:42:39.746Z,10.52
2017-02-15T09:43:39.672Z,10.42
2017-02-15T09:44:39.623Z,10.42
2017-02-15T09:45:39.554Z,10.42
2017-02-15T09:46:39.485Z,10.42
2017-02-15T09:47:39.038Z,10.52
2017-02-15T09:48:38.971Z,10.33
2017-02-15T09:49:38.916Z,10.52
2017-02-15T09:50:39.234Z,10.72
2017-02-15T09:51:39.421Z,10.72
2017-02-15T09:52:39.103Z,10.81
2017-02-15T09:53:38.665Z,10.52
2017-02-15T09:54:39.020Z,10.72
2017-02-15T09:55:38.775Z,10.62
2017-02-15T09:56:38.867Z,10.62
2017-02-15T09:57:38.418Z,10.72
2017-02-15T09:58:38.385Z,10.52
2017-02-15T09:59:38.690Z,10.72
2017-02-15T10:00:38.221Z,10.72
2017-02-15T10:01:38.566Z,10.72
2017-02-15T10:02:38.463Z,10.62
2017-02-15T10:03:38.399Z,10.62
2017-02-15T10:04:38.336Z,10.62
2017-02-15T10:05:38.278Z,10.62
2017-02-15T10:06:38.212Z,10.81
2017-02-15T10:07:38.147Z,10.62
2017-02-15T10:08:37.700Z,10.62
2017-02-15T10:09:38.018Z,10.62
2017-02-15T10:10:37.961Z,10.33
2017-02-15T10:11:37.907Z,10.33
2017-02-15T10:12:37.825Z,10.42
2017-02-15T10:13:37.761Z,10.52
2017-02-15T10:14:37.327Z,10.72
2017-02-15T10:15:37.635Z,10.42
2017-02-15T10:16:37.582Z,10.62
2017-02-15T10:17:37.845Z,10.42
2017-02-15T10:18:37.597Z,10.62
2017-02-15T10:19:37.382Z,10.62
2017-02-15T10:20:37.319Z,10.62
2017-02-15T10:21:37.265Z,10.62
2017-02-15T10:22:37.441Z,10.62
2017-02-15T10:23:36.759Z,10.33
2017-02-15T10:24:37.071Z,10.33
2017-02-15T10:25:37.251Z,10.81
2017-02-15T10:26:36.953Z,10.91
2017-02-15T10:27:36.886Z,10.72
2017-02-15T10:28:36.815Z,10.91
2017-02-15T10:29:36.762Z,10.81
2017-02-15T10:30:36.688Z,10.81
2017-02-15T10:31:36.618Z,10.91
2017-02-15T10:32:36.557Z,10.81
2017-02-15T10:33:36.497Z,10.81
2017-02-15T10:34:36.430Z,10.72
2017-02-15T10:35:36.366Z,10.62
2017-02-15T10:36:36.317Z,10.33
2017-02-15T10:37:36.273Z,10.42
2017-02-15T10:38:35.801Z,10.72
2017-02-15T10:39:36.112Z,10.81
2017-02-15T10:40:36.048Z,10.81
2017-02-15T10:41:36.010Z,10.72
2017-02-15T10:42:35.931Z,10.52
2017-02-15T10:43:35.486Z,10.33
2017-02-15T10:44:35.798Z,10.62
2017-02-15T10:45:35.738Z,10.23
2017-02-15T10:46:35.683Z,10.33
2017-02-15T10:47:35.605Z,10.52
2017-02-15T10:48:35.537Z,10.52
2017-02-15T10:49:35.485Z,10.52
2017-02-15T10:50:35.719Z,10.14
2017-02-15T10:51:35.350Z,10.52
2017-02-15T10:52:35.310Z,10.81
2017-02-15T10:53:35.476Z,10.62
2017-02-15T10:54:35.175Z,10.52
2017-02-15T10:55:35.365Z,10.62
2017-02-15T10:56:35.033Z,10.62
2017-02-15T10:57:34.621Z,10.81
2017-02-15T10:58:34.907Z,10.62
2017-02-15T10:59:35.096Z,10.62
2017-02-15T11:00:34.798Z,10.33
2017-02-15T11:01:34.332Z,10.42
2017-02-15T11:02:34.661Z,10.42
2017-02-15T11:03:34.587Z,10.91
2017-02-15T11:04:34.537Z,10.42
2017-02-15T11:05:34.466Z,10.72
2017-02-15T11:06:34.407Z,11
2017-02-15T11:07:34.331Z,11.2
2017-02-15T11:08:34.270Z,11.2
2017-02-15T11:09:34.203Z,11.29
2017-02-15T11:10:34.144Z,11.1
2017-02-15T11:11:34.076Z,11
2017-02-15T11:12:34.022Z,11.58
2017-02-15T11:13:33.964Z,11.78
2017-02-15T11:14:33.886Z,11.78
2017-02-15T11:15:33.823Z,11.87
2017-02-15T11:16:33.780Z,11.58
2017-02-15T11:17:33.697Z,11.68
2017-02-15T11:18:33.654Z,12.07
2017-02-15T11:19:33.572Z,11.78
2017-02-15T11:20:33.527Z,12.07
2017-02-15T11:21:33.072Z,11.87
2017-02-15T11:22:33.378Z,11.78
2017-02-15T11:23:33.315Z,11.87
2017-02-15T11:24:33.288Z,12.07
2017-02-15T11:25:33.444Z,12.26
2017-02-15T11:26:33.124Z,12.07
2017-02-15T11:27:33.067Z,12.16
2017-02-15T11:28:32.998Z,12.26
2017-02-15T11:29:32.944Z,12.16
2017-02-15T11:30:33.074Z,12.16
2017-02-15T11:31:32.815Z,12.26
2017-02-15T11:32:32.750Z,11.97
2017-02-15T11:33:32.682Z,12.16
2017-02-15T11:34:32.632Z,12.36
2017-02-15T11:35:32.564Z,12.46
2017-02-15T11:36:32.489Z,12.45
2017-02-15T11:37:32.446Z,12.55
2017-02-15T11:38:32.367Z,12.84
2017-02-15T11:39:32.305Z,12.65
2017-02-15T11:40:32.251Z,12.65
2017-02-15T11:41:32.174Z,12.65
2017-02-15T11:42:32.114Z,12.46
2017-02-15T11:43:32.050Z,12.55
2017-02-15T11:44:31.990Z,12.65
2017-02-15T11:45:31.925Z,12.46
2017-02-15T11:46:31.859Z,12.37
2017-02-15T11:47:31.800Z,12.85
2017-02-15T11:48:31.732Z,12.94
2017-02-15T11:49:31.673Z,12.85
2017-02-15T11:50:31.609Z,12.85
2017-02-15T11:51:31.549Z,12.85
2017-02-15T11:52:31.492Z,13.04
2017-02-15T11:53:31.419Z,13.23
2017-02-15T11:54:31.358Z,12.94
2017-02-15T11:55:31.293Z,12.65
2017-02-15T11:56:31.226Z,13.23
2017-02-15T11:57:30.778Z,13.13
2017-02-15T11:58:31.100Z,13.23
2017-02-15T11:59:31.035Z,13.33
2017-02-15T12:00:30.973Z,12.94
2017-02-15T12:01:30.910Z,13.33
2017-02-15T12:02:30.850Z,13.23
2017-02-15T12:03:30.786Z,13.23
2017-02-15T12:04:30.730Z,13.04
2017-02-15T12:05:30.663Z,13.04
2017-02-15T12:06:30.222Z,12.75
2017-02-15T12:07:30.534Z,12.94
2017-02-15T12:08:30.469Z,13.04
2017-02-15T12:09:30.413Z,13.13
2017-02-15T12:10:30.342Z,13.23
2017-02-15T12:11:30.281Z,13.23
2017-02-15T12:12:30.215Z,14.01
2017-02-15T12:13:29.777Z,14.68
2017-02-15T12:14:30.097Z,13.81
2017-02-15T12:15:30.027Z,13.23
2017-02-15T12:16:29.595Z,13.62
2017-02-15T12:17:29.915Z,13.13
2017-02-15T12:18:29.838Z,13.04
2017-02-15T12:19:29.779Z,13.13
2017-02-15T12:20:29.328Z,13.23
2017-02-15T12:21:29.282Z,12.85
2017-02-15T12:22:29.205Z,12.94
2017-02-15T12:23:29.525Z,12.85
2017-02-15T12:24:29.081Z,13.23
2017-02-15T12:25:29.404Z,13.13
2017-02-15T12:26:29.339Z,13.23
2017-02-15T12:27:28.885Z,12.85
2017-02-15T12:28:29.236Z,13.13
2017-02-15T12:29:29.146Z,13.04
2017-02-15T12:30:29.089Z,13.23
2017-02-15T12:31:29.020Z,13.13
2017-02-15T12:32:28.966Z,12.55
2017-02-15T12:33:28.893Z,12.36
2017-02-15T12:34:28.831Z,12.45
2017-02-15T12:35:28.766Z,12.46
2017-02-15T12:36:28.712Z,12.36
2017-02-15T12:37:28.858Z,12.65
2017-02-15T12:38:28.747Z,12.65
2017-02-15T12:39:28.519Z,12.55
2017-02-15T12:40:28.453Z,12.46
2017-02-15T12:41:28.388Z,12.65
2017-02-15T12:42:28.325Z,12.94
2017-02-15T12:43:28.272Z,12.85
2017-02-15T12:44:28.207Z,12.85
2017-02-15T12:45:28.138Z,12.85
2017-02-15T12:46:28.082Z,13.33
2017-02-15T12:47:28.009Z,13.43
2017-02-15T12:48:27.945Z,13.62
2017-02-15T12:49:27.896Z,13.13
2017-02-15T12:50:27.834Z,14.1
2017-02-15T12:51:27.759Z,13.82
2017-02-15T12:52:27.703Z,14.11
2017-02-15T12:53:27.632Z,14.11
2017-02-15T12:54:27.578Z,14.3
2017-02-15T12:55:27.519Z,14.4
2017-02-15T12:56:27.487Z,14.4
2017-02-15T12:57:27.391Z,14.69
2017-02-15T12:58:27.319Z,15.08
2017-02-15T12:59:27.251Z,15.17